Irvington, New Jersey
Current Conditions -  °F | °C
As of 7:51 PM on Sunday 23 Nov 2014 (Local Time) from KEWR Reporting Station
Overcast Overcast  
Wind Chill: 50°   Ceiling: 25000
Heat Index: 50°   Visibility: 10mi
Dew Point: 31°   Wind: 0mph
Humidity: 48%   Direction: NA
Pressure: 30.11"   Gusts: NA
Location:  40.73°N, 74.23°W
Report Text: KEWR 240051Z 00000KT 10SM FEW100 SCT150 OVC250 10/M00 A3011 RMK AO2 SLP195 T01021005
Loading
Personal Weather Stations






























Interactive Weather Map New forecast layout! Learn more

10-Day Weather Forecast

Advertisements
Track Severe Weather on mobile